createdAt,value
2022-08-22T00:04:20.231Z,98965.27
2022-08-22T00:09:58.705Z,98966.37
2022-08-22T00:15:42.160Z,98968.30
2022-08-22T00:21:18.220Z,98968.34
2022-08-22T00:27:02.148Z,98970.62
2022-08-22T00:32:37.286Z,98971.41
2022-08-22T00:38:11.162Z,98974.19
2022-08-22T00:43:39.600Z,98972.77
2022-08-22T00:49:17.020Z,98971.85
2022-08-22T00:54:53.654Z,98970.67
2022-08-22T01:00:05.371Z,98971.30
2022-08-22T01:05:20.497Z,98971.06
2022-08-22T01:10:58.096Z,98975.13
2022-08-22T01:16:41.958Z,98974.14
2022-08-22T01:22:22.281Z,98976.27
2022-08-22T01:27:37.038Z,98983.78
2022-08-22T01:33:18.403Z,98986.17
2022-08-22T01:39:02.072Z,98985.98
2022-08-22T01:44:45.989Z,98981.02
2022-08-22T01:50:00.628Z,98979.32
2022-08-22T01:55:21.186Z,98982.21
2022-08-22T02:00:35.528Z,98982.98
2022-08-22T02:05:54.030Z,98979.92
2022-08-22T02:11:12.143Z,98980.63
2022-08-22T02:17:14.864Z,98980.80
2022-08-22T02:22:44.505Z,98983.52
2022-08-22T02:28:15.066Z,98986.73
2022-08-22T02:33:45.845Z,98992.79
2022-08-22T02:39:31.647Z,98993.75
2022-08-22T02:44:53.064Z,99000.40
2022-08-22T02:50:23.952Z,98993.55
2022-08-22T02:55:34.031Z,98997.42
2022-08-22T03:01:23.905Z,98996.80
2022-08-22T03:06:50.171Z,98989.10
2022-08-22T03:12:25.052Z,98992.30
2022-08-22T03:17:55.581Z,98997.19
2022-08-22T03:23:08.661Z,99002.48
2022-08-22T03:28:59.427Z,98999.98
2022-08-22T03:34:26.882Z,99000.63
2022-08-22T03:39:56.930Z,99012.29
2022-08-22T03:45:52.516Z,99014.98
2022-08-22T03:51:21.960Z,99017.51
2022-08-22T03:57:10.761Z,99015.64
2022-08-22T04:03:07.899Z,99016.96
2022-08-22T04:08:26.450Z,99025.41
2022-08-22T04:14:01.404Z,99030.39
2022-08-22T04:19:22.851Z,99040.38
2022-08-22T04:25:12.252Z,99046.90
2022-08-22T04:31:06.109Z,99046.35
2022-08-22T04:36:20.717Z,99045.58
2022-08-22T04:41:52.409Z,99045.34
2022-08-22T04:47:05.257Z,99043.43
2022-08-22T04:53:09.193Z,99052.85
2022-08-22T04:58:48.663Z,99051.14
2022-08-22T05:04:06.963Z,99060.84
2022-08-22T05:09:19.367Z,99058.67
2022-08-22T05:14:43.654Z,99058.23
2022-08-22T05:19:54.027Z,99060.61
2022-08-22T05:25:04.891Z,99061.45
2022-08-22T05:30:17.053Z,99063.69
2022-08-22T05:35:36.116Z,99065.42
2022-08-22T05:40:43.232Z,99073.29
2022-08-22T05:45:48.060Z,99069.71
2022-08-22T05:51:02.034Z,99070.35
2022-08-22T05:56:41.102Z,99075.58
2022-08-22T06:01:55.374Z,99079.44
2022-08-22T06:07:18.392Z,99091.96
2022-08-22T06:12:29.549Z,99089.96
2022-08-22T06:17:43.166Z,99093.86
2022-08-22T06:23:11.084Z,99092.23
2022-08-22T06:28:29.731Z,99098.21
2022-08-22T06:33:40.251Z,99093.82
2022-08-22T06:38:53.741Z,99101.10
2022-08-22T06:43:59.011Z,99108.39
2022-08-22T06:49:04.764Z,99110.60
2022-08-22T06:54:18.316Z,99110.17
2022-08-22T06:59:32.296Z,99114.50
2022-08-22T07:04:36.605Z,99120.92
2022-08-22T07:09:42.106Z,99122.11
2022-08-22T07:14:55.912Z,99125.88
2022-08-22T07:20:22.735Z,99129.02
2022-08-22T07:25:27.730Z,99133.72
2022-08-22T07:31:02.058Z,99136.72
2022-08-22T07:36:55.530Z,99132.04
2022-08-22T07:42:10.077Z,99136.80
2022-08-22T07:47:26.532Z,99132.22
2022-08-22T07:52:40.685Z,99134.89
2022-08-22T07:58:01.864Z,99136.39
2022-08-22T08:03:11.984Z,99143.96
2022-08-22T08:08:34.717Z,99149.27
2022-08-22T08:13:43.957Z,99146.39
2022-08-22T08:18:51.267Z,99148.69
2022-08-22T08:23:55.137Z,99147.06
2022-08-22T08:28:59.689Z,99151.91
2022-08-22T08:34:32.668Z,99150.76
2022-08-22T08:39:42.253Z,99146.00
2022-08-22T08:45:05.141Z,99148.94
2022-08-22T08:50:44.046Z,99154.27
2022-08-22T08:56:03.285Z,99151.34
2022-08-22T09:01:34.100Z,99149.49
2022-08-22T09:06:56.718Z,99152.08
2022-08-22T09:12:36.596Z,99151.24
2022-08-22T09:18:24.362Z,99148.14
2022-08-22T09:24:11.230Z,99148.19
2022-08-22T09:29:54.456Z,99144.23
2022-08-22T09:35:13.083Z,99139.77
2022-08-22T09:40:37.294Z,99140.39
2022-08-22T09:46:19.776Z,99136.90
2022-08-22T09:52:02.643Z,99136.68
2022-08-22T09:57:40.033Z,99135.70
2022-08-22T10:03:06.146Z,99135.52
2022-08-22T10:08:19.723Z,99133.14
2022-08-22T10:14:03.682Z,99135.67
2022-08-22T10:19:30.702Z,99132.48
2022-08-22T10:24:58.628Z,99133.05
2022-08-22T10:30:32.828Z,99134.94
2022-08-22T10:36:12.022Z,99141.96
2022-08-22T10:42:00.272Z,99137.18
2022-08-22T10:47:15.264Z,99139.63
2022-08-22T10:52:43.225Z,99137.02
2022-08-22T10:58:07.279Z,99135.37
2022-08-22T11:03:48.722Z,99134.20
2022-08-22T11:09:09.313Z,99131.81
2022-08-22T11:15:03.034Z,99120.33
2022-08-22T11:20:25.469Z,99125.90
2022-08-22T11:26:14.464Z,99125.40
2022-08-22T11:31:47.199Z,99126.48
2022-08-22T11:37:11.087Z,99129.45
2022-08-22T11:42:33.498Z,99127.64
2022-08-22T11:47:56.634Z,99119.05
2022-08-22T11:53:15.361Z,99121.84
2022-08-22T11:58:28.823Z,99121.39
2022-08-22T12:04:28.737Z,99113.73
2022-08-22T12:09:55.463Z,99109.60
2022-08-22T12:15:21.276Z,99108.61
2022-08-22T12:20:45.883Z,99106.11
2022-08-22T12:26:11.048Z,99108.30
2022-08-22T12:31:31.586Z,99108.42
2022-08-22T12:36:55.249Z,99105.60
2022-08-22T12:42:20.170Z,99102.52
2022-08-22T12:48:00.829Z,99096.27
2022-08-22T12:53:20.338Z,99091.52
2022-08-22T12:59:22.781Z,99087.58
2022-08-22T13:04:33.545Z,99087.59
2022-08-22T13:09:49.052Z,99080.83
2022-08-22T13:15:27.552Z,99087.48
2022-08-22T13:20:31.886Z,99077.66
2022-08-22T13:26:07.695Z,99076.73
2022-08-22T13:31:24.895Z,99080.68
2022-08-22T13:36:31.722Z,99086.23
2022-08-22T13:42:00.727Z,99083.66
2022-08-22T13:47:14.600Z,99082.20
2022-08-22T13:52:30.575Z,99076.81
2022-08-22T13:57:51.967Z,99073.02
2022-08-22T14:03:26.415Z,99092.84
2022-08-22T14:08:36.677Z,99090.05
2022-08-22T14:13:59.547Z,99084.73
2022-08-22T14:19:14.618Z,99079.95
2022-08-22T14:24:31.959Z,99079.18
2022-08-22T14:29:50.414Z,99080.77
2022-08-22T14:35:04.469Z,99079.49
2022-08-22T14:40:18.305Z,99077.23
2022-08-22T14:45:33.045Z,99072.69
2022-08-22T14:51:01.507Z,99069.91
2022-08-22T14:56:30.293Z,99072.23
2022-08-22T15:02:13.777Z,99072.21
2022-08-22T15:07:35.132Z,99075.80
2022-08-22T15:12:49.750Z,99072.20
2022-08-22T15:17:53.468Z,99070.88
2022-08-22T15:23:18.363Z,99062.85
2022-08-22T15:28:22.247Z,99066.36
2022-08-22T15:33:32.991Z,99073.84
2022-08-22T15:38:42.058Z,99070.48
2022-08-22T15:44:32.166Z,99066.83
2022-08-22T15:49:51.283Z,99069.42
2022-08-22T15:54:54.258Z,99076.90
2022-08-22T16:00:27.920Z,99073.73
2022-08-22T16:05:46.584Z,99072.91
2022-08-22T16:11:02.937Z,99078.26
2022-08-22T16:16:27.521Z,99083.73
2022-08-22T16:21:30.448Z,99083.40
2022-08-22T16:26:44.252Z,99082.70
2022-08-22T16:31:47.313Z,99086.77
2022-08-22T16:37:08.941Z,99088.06
2022-08-22T16:42:20.904Z,99097.23
2022-08-22T16:47:33.147Z,99098.52
2022-08-22T16:52:50.530Z,99104.95
2022-08-22T16:58:15.059Z,99110.88
2022-08-22T17:04:05.312Z,99109.84
2022-08-22T17:09:47.672Z,99118.55
2022-08-22T17:15:24.724Z,99122.23
2022-08-22T17:20:39.773Z,99119.77
2022-08-22T17:26:10.856Z,99128.59
2022-08-22T17:31:32.547Z,99128.77
2022-08-22T17:36:45.984Z,99132.44
2022-08-22T17:42:10.759Z,99135.34
2022-08-22T17:47:33.790Z,99140.05
2022-08-22T17:52:46.199Z,99136.16
2022-08-22T17:57:57.885Z,99138.34
2022-08-22T18:03:08.583Z,99140.42
2022-08-22T18:14:25.960Z,99148.64
2022-08-22T18:20:21.887Z,99143.49
2022-08-22T18:25:41.813Z,99150.89
2022-08-22T18:31:02.667Z,99149.23
2022-08-22T18:36:12.255Z,99155.84
2022-08-22T18:41:27.830Z,99158.73
2022-08-22T18:46:45.575Z,99164.70
2022-08-22T18:52:10.006Z,99158.36
2022-08-22T18:57:58.953Z,99161.24
2022-08-22T19:03:24.118Z,99156.92
2022-08-22T19:09:02.127Z,99156.73
2022-08-22T19:14:28.064Z,99166.60
2022-08-22T19:20:22.489Z,99169.65
2022-08-22T19:25:28.012Z,99171.54
2022-08-22T19:30:36.332Z,99176.15
2022-08-22T19:36:06.409Z,99180.25
2022-08-22T19:41:09.530Z,99182.45
2022-08-22T19:46:13.606Z,99197.49
2022-08-22T19:51:19.576Z,99189.14
2022-08-22T19:56:53.582Z,99189.39
2022-08-22T20:02:20.350Z,99187.30
2022-08-22T20:08:02.945Z,99187.66
2022-08-22T20:13:23.029Z,99185.23
2022-08-22T20:19:08.816Z,99166.59
2022-08-22T20:24:49.249Z,99175.67
2022-08-22T20:30:28.607Z,99173.83
2022-08-22T20:35:59.283Z,99163.65
2022-08-22T20:41:23.848Z,99161.46
2022-08-22T20:46:39.456Z,99166.59
2022-08-22T20:51:54.614Z,99158.71
2022-08-22T20:57:16.233Z,99156.92
2022-08-22T21:02:34.303Z,99145.12
2022-08-22T21:07:43.055Z,99143.84
2022-08-22T21:13:38.771Z,99155.04
2022-08-22T21:18:48.207Z,99164.13
2022-08-22T21:24:07.159Z,99168.84
2022-08-22T21:29:13.117Z,99164.80
2022-08-22T21:34:19.874Z,99158.64
2022-08-22T21:39:34.231Z,99163.23
2022-08-22T21:44:41.808Z,99154.84
2022-08-22T21:50:12.919Z,99150.17
2022-08-22T21:55:46.818Z,99145.77
2022-08-22T22:00:57.654Z,99146.52
2022-08-22T22:06:05.420Z,99144.70
2022-08-22T22:11:14.545Z,99136.80
2022-08-22T22:16:24.945Z,99128.63
2022-08-22T22:21:28.374Z,99132.60
2022-08-22T22:26:31.834Z,99117.63
2022-08-22T22:31:34.866Z,99109.45
2022-08-22T22:36:38.302Z,99117.58
2022-08-22T22:41:41.307Z,99123.27
2022-08-22T22:46:44.318Z,99122.80
2022-08-22T22:51:47.328Z,99135.34
2022-08-22T22:56:51.834Z,99161.78
2022-08-22T23:02:05.748Z,99155.44
2022-08-22T23:07:11.088Z,99142.38
2022-08-22T23:12:15.441Z,99131.80
2022-08-22T23:17:19.499Z,99139.17
2022-08-22T23:22:22.478Z,99142.36
2022-08-22T23:27:25.744Z,99139.48
2022-08-22T23:32:29.163Z,99152.91
2022-08-22T23:37:32.260Z,99169.14
2022-08-22T23:42:35.632Z,99183.72
2022-08-22T23:47:38.776Z,99185.84
2022-08-22T23:52:42.247Z,99188.23
2022-08-22T23:57:45.288Z,99191.38
